Impacts METAR Board
IDs:

KSAV - Savannah Intl, GA, US

Updated at: 0000 UTC 05 Jul 2022
Potential Impact None Slight Moderate High
Time 04/12Z 04/13Z 04/14Z 04/15Z 04/16Z 04/17Z 04/18Z 04/19Z 04/20Z 04/21Z 04/22Z 04/23Z 05/00Z
Temp78 81 85 88 89 90 92 94 90 90 87 86 83
Dewpt73 73 72 73 72 72 72 72 72 74 77 75 73
Altim30.11 30.12 30.12 30.12 30.12 30.10 30.08 30.05 30.05 30.05 30.04 30.06 30.07
VIS10 10 10 10 10 10 10 10 10 10 10 10 10
CIG-- -- -- -- -- -- 70 65 50 250 150 150 150
CoverFEWFEWFEWFEWFEWSCTBKNBKNBKNBKNBKNBKNBKN
FltCatVFRVFRVFRVFRVFRVFRVFRVFRVFRVFRVFRVFRVFR
WX------------------VCTSVCTSVCTS--
WDir2502602200027000320170150160280
WSpd4 3 6 4 0 5 0 4 8 10 8 6 4
WGst-- -- -- -- -- -- -- -- -- -- -- -- --
R01/19
XWnd 4 3 4 VRB VRB 5 VRB VRB 5 -2 -4 -2 4
R10/28
XWnd -1 -1 -5 VRB VRB -0 VRB VRB 6 -10 -7 -6 1
Raw hourly METARs
KSAV 041153Z 25004KT 10SM FEW055 FEW250 26/23 A3011 RMK AO2 SLP196 T02560228 10261 20239 51015
KSAV 041253Z 26003KT 10SM FEW050 FEW080 27/23 A3012 RMK AO2 SLP199 T02720228
KSAV 041353Z 22006KT 10SM FEW035 FEW070 29/22 A3012 RMK AO2 SLP197 T02940222
KSAV 041453Z VRB04KT 10SM FEW030 FEW250 31/23 A3012 RMK AO2 SLP198 T03110228 51003
KSAV 041553Z 00000KT 10SM FEW034 FEW250 32/22 A3012 RMK AO2 SLP198 T03170222
KSAV 041653Z 27005KT 10SM SCT037 SCT250 32/22 A3010 RMK AO2 SLP192 T03220222
KSAV 041753Z 00000KT 10SM SCT039 BKN070 BKN250 33/22 A3008 RMK AO2 SLP184 T03330222 10339 20256 58014
KSAV 041853Z VRB04KT 10SM FEW040 BKN065 BKN250 34/22 A3005 RMK AO2 SLP175 CB DSNT NE AND NW T03440222
KSAV 041953Z 32008KT 10SM BKN050CB BKN075 BKN250 32/22 A3005 RMK AO2 LTG DSNT NE SLP174 CB SE AND NW MOV SW CB DSNT NE AND W AND NW T03220222
KSAV 042053Z 17010KT 10SM VCTS FEW038CB SCT080 BKN250 32/23 A3005 RMK AO2 LTG DSNT SW RAB10E46 TSB33E48 SLP175 CB SW MOV SW CB DSNT N-NE AND SW-W AND NW P0000 60000 T03220233 55009
KSAV 042153Z 15008KT 10SM VCTS FEW040 SCT070 BKN150 31/25 A3004 RMK AO2 LTG DSNT SW-N SLP173 CB DSNT SW-W AND NW-NE T03060250
KSAV 042253Z 16006KT 10SM VCTS FEW029 SCT070 BKN150 30/24 A3006 RMK AO2 LTG DSNT SW-N SLP178 CB DSNT SW-NW T03000239
KSAV 042353Z 28004KT 10SM SCT048 SCT065 BKN150 28/23 A3007 RMK AO2 LTG DSNT NW SLP182 CB DSNT SW 60000 T02830228 10350 20283 53009



Page loaded:  00:16 UTC  |   05:16 PM Pacific  |   06:16 PM Mountain  |   07:16 PM Central  |   08:16 PM Eastern

 

ADVISORIES

FORECASTS

FORECASTS

OBSERVATIONS

USER TOOLS

ABOUT US